Time;durP1;ratioP1;P1;durP2;ratioP2;P2;SDS_P1;SDS_P2;PMS_P1;PMS_P2;Temp;Humidity;BMP_temperature;BMP_pressure;BME280_temperature;BME280_humidity;BME280_pressure;Samples;Min_cycle;Max_cycle;Signal;HPM_P1;HPM_P2
2023/03/25 00:00:24;;;;;;;1.30;0.60;;;;;;;10.05;85.38;98074.34;4990368;28;103342;-65
2023/03/25 00:02:53;;;;;;;1.30;0.50;;;;;;;9.93;84.72;98085.06;4991013;28;103821;-65
2023/03/25 00:05:22;;;;;;;2.03;0.60;;;;;;;10.20;84.85;98072.31;4974161;28;103452;-65
2023/03/25 00:07:52;;;;;;;1.27;0.60;;;;;;;10.23;84.25;98083.47;4992621;28;103281;-65
2023/03/25 00:10:21;;;;;;;1.50;0.50;;;;;;;10.08;83.86;98078.53;4987764;28;104962;-65
2023/03/25 00:12:49;;;;;;;1.73;0.43;;;;;;;9.96;84.33;98074.25;4992420;28;102687;-64
2023/03/25 00:15:17;;;;;;;1.07;0.30;;;;;;;9.98;84.22;98074.97;4995873;28;102858;-65
2023/03/25 00:17:45;;;;;;;2.43;0.43;;;;;;;10.10;84.22;98079.28;4993565;28;103693;-64
2023/03/25 00:20:14;;;;;;;0.73;0.47;;;;;;;10.01;84.89;98067.66;4972443;28;103432;-65
2023/03/25 00:22:43;;;;;;;1.23;0.50;;;;;;;10.23;83.64;98080.84;4991669;28;102877;-64
2023/03/25 00:25:15;;;;;;;1.13;0.50;;;;;;;10.21;84.49;98069.56;4994810;28;104447;-64
2023/03/25 00:27:45;;;;;;;1.27;0.50;;;;;;;9.94;83.10;98076.19;4992887;28;103881;-64
2023/03/25 00:30:15;;;;;;;1.10;0.43;;;;;;;10.27;82.25;98078.81;4980603;28;103258;-65
2023/03/25 00:32:44;;;;;;;0.73;0.50;;;;;;;10.46;81.52;98082.47;4976156;28;103513;-64
2023/03/25 00:35:18;;;;;;;0.80;0.60;;;;;;;10.26;82.56;98079.75;4969764;28;104223;-64
2023/03/25 00:37:56;;;;;;;1.60;0.60;;;;;;;10.18;81.91;98079.53;4992714;28;103258;-64
2023/03/25 00:40:23;;;;;;;1.70;0.57;;;;;;;9.95;82.33;98085.75;4974861;28;103073;-64
2023/03/25 00:42:51;;;;;;;0.90;0.40;;;;;;;9.95;81.48;98078.69;4974482;28;102774;-64
2023/03/25 00:45:20;;;;;;;0.40;0.40;;;;;;;10.15;81.70;98079.78;4990727;28;102834;-64
2023/03/25 00:47:48;;;;;;;1.93;0.40;;;;;;;10.09;81.50;98081.06;4974500;28;103250;-64
2023/03/25 00:50:19;;;;;;;0.60;0.30;;;;;;;10.13;81.32;98077.28;4970282;28;103582;-64
2023/03/25 00:52:47;;;;;;;0.60;0.40;;;;;;;10.23;80.57;98066.78;4977479;28;102864;-64
2023/03/25 00:55:17;;;;;;;1.70;0.40;;;;;;;10.03;81.60;98059.59;4991347;28;103447;-64
2023/03/25 00:57:45;;;;;;;1.43;0.60;;;;;;;10.25;80.62;98057.78;4973859;28;104240;-64
2023/03/25 01:00:16;;;;;;;2.90;0.47;;;;;;;10.25;80.40;98065.72;4974549;28;103078;-64
2023/03/25 01:02:44;;;;;;;1.90;0.80;;;;;;;10.30;79.31;98049.50;4989234;28;103079;-64
2023/03/25 01:05:12;;;;;;;2.17;0.50;;;;;;;10.24;79.29;98052.66;4990925;28;102830;-64
2023/03/25 01:07:42;;;;;;;1.13;0.50;;;;;;;10.28;79.30;98059.34;4992010;28;104139;-64
2023/03/25 01:10:11;;;;;;;1.20;0.50;;;;;;;10.16;80.00;98060.34;4972566;28;103259;-64
2023/03/25 01:12:39;;;;;;;1.00;0.60;;;;;;;10.04;79.82;98056.00;4973495;28;102818;-64
2023/03/25 01:15:11;;;;;;;1.00;0.70;;;;;;;10.26;79.31;98056.00;4993540;28;102842;-64
2023/03/25 01:17:40;;;;;;;1.13;0.40;;;;;;;10.26;79.28;98056.84;4992592;28;103475;-64
2023/03/25 01:20:09;;;;;;;0.90;0.47;;;;;;;10.07;80.18;98058.41;4989947;28;103231;-64
2023/03/25 01:22:37;;;;;;;1.47;0.60;;;;;;;10.12;79.69;98064.16;4973395;28;102873;-64
2023/03/25 01:25:07;;;;;;;1.17;0.60;;;;;;;10.13;79.52;98068.50;4992635;28;102830;-64
2023/03/25 01:27:35;;;;;;;1.60;0.50;;;;;;;10.22;78.80;98067.75;4971076;28;103300;-64
2023/03/25 01:30:03;;;;;;;1.07;0.40;;;;;;;10.08;79.15;98052.16;4990318;28;103318;-64
2023/03/25 01:32:31;;;;;;;0.87;0.50;;;;;;;10.05;78.77;98055.06;4976653;28;102787;-64
2023/03/25 01:34:59;;;;;;;2.10;0.87;;;;;;;10.01;78.83;98045.69;4993138;28;102694;-64
2023/03/25 01:37:28;;;;;;;2.20;0.93;;;;;;;10.04;78.40;98034.91;4992393;28;103883;-64
2023/03/25 01:39:56;;;;;;;2.17;0.70;;;;;;;10.02;78.37;98042.94;4990082;28;103198;-64
2023/03/25 01:42:25;;;;;;;3.57;0.80;;;;;;;10.01;78.67;98048.34;4971210;28;102838;-64
2023/03/25 01:45:21;;;;;;;1.63;0.70;;;;;;;10.04;78.24;98045.47;4976061;28;102869;-64
2023/03/25 01:47:54;;;;;;;2.97;1.03;;;;;;;9.98;78.67;98043.31;4994702;28;103241;-64
2023/03/25 01:50:22;;;;;;;2.67;0.87;;;;;;;9.87;78.53;98046.81;4995862;28;103401;-64
2023/03/25 01:52:52;;;;;;;2.13;0.50;;;;;;;9.95;78.52;98047.03;4978911;28;102721;-64
2023/03/25 01:55:20;;;;;;;1.30;0.80;;;;;;;9.84;78.04;98039.97;4979805;28;102779;-64
2023/03/25 01:57:54;;;;;;;3.20;0.90;;;;;;;10.02;77.48;98042.13;4993325;28;103201;-64
2023/03/25 02:00:22;;;;;;;0.80;0.47;;;;;;;10.15;77.01;98037.53;4975660;28;103285;-64
2023/03/25 02:02:51;;;;;;;1.60;0.70;;;;;;;10.21;77.18;98023.84;4992499;28;102904;-64
2023/03/25 02:05:24;;;;;;;1.47;0.80;;;;;;;10.08;77.69;98017.84;4975964;28;104313;-64
2023/03/25 02:07:56;;;;;;;3.40;0.87;;;;;;;9.98;77.78;98014.28;4975976;28;103782;-64
2023/03/25 02:10:25;;;;;;;2.07;0.60;;;;;;;10.08;78.36;98004.66;4977343;28;103226;-64
2023/03/25 02:12:54;;;;;;;1.03;0.70;;;;;;;10.09;78.22;98008.97;4992779;28;104662;-64
2023/03/25 02:15:22;;;;;;;1.40;0.70;;;;;;;9.89;79.13;98002.66;4980565;28;102908;-64
2023/03/25 02:18:16;;;;;;;2.40;0.90;;;;;;;9.87;78.20;98008.06;4975916;28;104286;-64
2023/03/25 02:21:22;;;;;;;2.23;0.70;;;;;;;9.97;77.74;98017.88;4987589;28;103156;-64
2023/03/25 02:24:36;;;;;;;2.10;0.50;;;;;;;9.79;78.13;98017.56;4995324;28;102713;-64
2023/03/25 02:27:16;;;;;;;1.83;0.70;;;;;;;9.90;77.95;98026.31;4974251;28;102854;-64
2023/03/25 02:30:24;;;;;;;3.03;0.70;;;;;;;10.10;77.19;98026.50;4988185;28;103849;-64
2023/03/25 02:33:11;;;;;;;1.83;0.77;;;;;;;10.01;77.53;98014.88;4976326;28;103207;-64
2023/03/25 02:35:54;;;;;;;3.90;1.10;;;;;;;9.98;78.17;98030.97;4992280;28;102661;-64
2023/03/25 02:38:36;;;;;;;3.20;1.10;;;;;;;9.65;79.30;98045.03;4992161;28;102721;-64
2023/03/25 02:41:08;;;;;;;1.73;0.70;;;;;;;9.74;79.65;98062.75;4990473;28;103082;-64
2023/03/25 02:43:44;;;;;;;3.10;0.80;;;;;;;9.53;81.16;98119.81;4993827;28;103249;-64
2023/03/25 02:46:16;;;;;;;2.03;0.60;;;;;;;8.69;81.49;98122.72;4973044;28;103524;-64
2023/03/25 02:48:52;;;;;;;1.90;0.70;;;;;;;8.45;85.35;98129.75;4972783;28;103617;-65
2023/03/25 02:51:27;;;;;;;4.60;0.80;;;;;;;8.18;88.01;98126.44;4989561;28;103956;-65
2023/03/25 02:54:00;;;;;;;1.00;0.50;;;;;;;8.12;88.04;98121.63;4976354;28;103195;-65
2023/03/25 02:56:31;;;;;;;1.37;0.50;;;;;;;8.02;88.76;98104.81;4993007;28;103895;-65
2023/03/25 02:59:03;;;;;;;1.70;0.50;;;;;;;7.96;88.71;98095.56;4992061;28;103968;-65
2023/03/25 03:01:33;;;;;;;0.83;0.40;;;;;;;8.12;88.02;98079.53;4986958;28;103311;-65
2023/03/25 03:04:02;;;;;;;0.77;0.50;;;;;;;8.24;86.77;98062.84;4979161;28;103310;-65
2023/03/25 03:06:32;;;;;;;1.30;0.53;;;;;;;8.20;86.64;98061.38;4972583;28;105638;-65
2023/03/25 03:09:17;;;;;;;1.23;0.30;;;;;;;8.21;86.39;98067.50;4980535;28;102677;-65
2023/03/25 03:11:55;;;;;;;0.57;0.30;;;;;;;8.54;86.61;98052.72;4994465;28;103442;-64
2023/03/25 03:14:34;;;;;;;1.90;0.40;;;;;;;8.63;85.89;98054.69;4991335;28;103276;-64
2023/03/25 03:17:09;;;;;;;0.30;0.30;;;;;;;8.66;87.11;98053.63;4992593;28;102738;-64
2023/03/25 03:19:45;;;;;;;1.20;0.40;;;;;;;8.74;86.81;98040.72;4992956;28;103239;-65
2023/03/25 03:22:37;;;;;;;1.60;0.40;;;;;;;8.69;85.72;98042.84;4992223;28;103606;-64
2023/03/25 03:25:14;;;;;;;0.40;0.30;;;;;;;8.72;85.52;98038.22;4992878;28;103211;-65
2023/03/25 03:27:47;;;;;;;0.83;0.50;;;;;;;8.86;85.62;98041.59;4989186;28;102772;-64
2023/03/25 03:30:21;;;;;;;0.63;0.40;;;;;;;8.80;85.16;98048.16;4978216;28;103184;-64
2023/03/25 03:32:56;;;;;;;3.00;0.60;;;;;;;8.78;84.95;98072.94;4993190;28;103410;-64
2023/03/25 03:35:28;;;;;;;0.50;0.40;;;;;;;8.89;85.28;98065.06;4990500;28;103194;-65
2023/03/25 03:37:59;;;;;;;0.40;0.40;;;;;;;8.93;85.25;98055.97;4997550;28;102616;-64
2023/03/25 03:40:32;;;;;;;0.90;0.43;;;;;;;8.67;86.28;98061.38;4993942;28;103797;-65
2023/03/25 03:43:04;;;;;;;0.40;0.40;;;;;;;8.47;86.10;98064.69;4973495;28;103694;-65
2023/03/25 03:45:38;;;;;;;1.43;0.50;;;;;;;7.71;90.65;98071.97;4974128;28;103939;-64
2023/03/25 03:48:12;;;;;;;0.87;0.47;;;;;;;8.10;91.01;98084.06;4993075;28;102719;-65
2023/03/25 03:50:47;;;;;;;1.47;0.50;;;;;;;8.34;88.15;98090.19;4977535;28;103777;-64
2023/03/25 03:53:23;;;;;;;0.67;0.60;;;;;;;8.62;86.83;98084.59;4973878;28;103080;-65
2023/03/25 03:56:00;;;;;;;2.10;0.50;;;;;;;8.63;87.43;98091.56;4975647;28;102999;-64
2023/03/25 03:58:33;;;;;;;2.30;0.50;;;;;;;8.64;87.09;98087.97;4976143;28;102701;-63
2023/03/25 04:01:05;;;;;;;0.50;0.40;;;;;;;8.64;86.76;98095.88;4975073;28;102995;-64
2023/03/25 04:03:37;;;;;;;1.00;0.70;;;;;;;8.48;88.02;98091.81;4993105;28;104356;-64
2023/03/25 04:06:13;;;;;;;2.43;0.70;;;;;;;8.57;87.50;98101.69;4975941;28;103113;-64
2023/03/25 04:08:52;;;;;;;0.97;0.50;;;;;;;8.58;86.02;98092.84;4991575;28;102645;-65
2023/03/25 04:11:25;;;;;;;1.07;0.50;;;;;;;8.71;85.27;98094.44;4993563;28;102724;-64
2023/03/25 04:13:58;;;;;;;1.60;0.57;;;;;;;8.62;85.50;98099.56;4994566;28;103648;-64
2023/03/25 04:16:27;;;;;;;0.60;0.60;;;;;;;8.64;84.67;98098.50;4990950;28;102957;-64
2023/03/25 04:18:58;;;;;;;1.67;0.50;;;;;;;8.69;84.78;98099.00;4993508;28;102651;-64
2023/03/25 04:21:28;;;;;;;0.57;0.50;;;;;;;8.72;84.08;98101.41;4989668;28;103167;-64
2023/03/25 04:24:00;;;;;;;1.57;0.50;;;;;;;8.69;84.13;98096.38;4973242;28;103068;-65
2023/03/25 04:26:32;;;;;;;1.97;0.50;;;;;;;8.67;84.41;98100.06;4987791;28;103264;-65
2023/03/25 04:29:01;;;;;;;0.87;0.47;;;;;;;8.71;83.53;98105.00;4993504;28;102673;-65
2023/03/25 04:31:30;;;;;;;2.53;0.60;;;;;;;8.72;84.24;98098.78;4988212;28;103970;-65
2023/03/25 04:33:59;;;;;;;1.50;0.57;;;;;;;8.74;84.02;98096.88;4991328;28;103158;-65
2023/03/25 04:36:28;;;;;;;0.50;0.30;;;;;;;8.66;84.17;98095.75;4990833;28;103169;-64
2023/03/25 04:38:56;;;;;;;0.97;0.50;;;;;;;8.47;85.33;98098.06;4989629;28;104256;-64
2023/03/25 04:41:25;;;;;;;0.30;0.30;;;;;;;8.38;85.16;98094.31;4994695;28;102758;-64
2023/03/25 04:43:54;;;;;;;0.77;0.40;;;;;;;8.50;84.96;98098.69;4994345;28;103410;-65
2023/03/25 04:46:22;;;;;;;1.77;0.60;;;;;;;8.41;84.79;98099.34;4993047;28;103220;-65
2023/03/25 04:48:52;;;;;;;1.57;0.60;;;;;;;8.45;85.04;98102.59;4988032;28;103556;-64
2023/03/25 04:51:22;;;;;;;1.30;0.60;;;;;;;8.43;84.97;98093.97;4972006;28;102827;-64
2023/03/25 04:53:50;;;;;;;0.73;0.70;;;;;;;8.29;85.24;98102.00;4993532;28;103376;-64
2023/03/25 04:56:19;;;;;;;0.90;0.50;;;;;;;8.29;85.06;98105.50;4975316;28;103246;-64
2023/03/25 04:58:47;;;;;;;1.23;0.50;;;;;;;8.42;84.79;98095.75;4991813;28;102556;-64
2023/03/25 05:01:22;;;;;;;1.23;0.60;;;;;;;8.42;84.15;98106.28;4994286;28;103361;-64
2023/03/25 05:03:50;;;;;;;1.40;0.57;;;;;;;8.35;83.91;98105.06;4993428;28;104088;-64
2023/03/25 05:06:18;;;;;;;1.20;0.60;;;;;;;8.24;84.65;98106.75;4994636;28;103365;-65
2023/03/25 05:08:46;;;;;;;2.10;0.70;;;;;;;8.30;84.85;98109.81;4991411;28;102958;-64
2023/03/25 05:11:14;;;;;;;0.83;0.50;;;;;;;8.41;84.27;98120.41;4990025;28;102768;-65
2023/03/25 05:13:44;;;;;;;1.87;0.60;;;;;;;8.42;83.69;98108.91;4992633;28;103206;-64
2023/03/25 05:16:12;;;;;;;2.60;0.67;;;;;;;8.34;84.88;98120.94;4991634;28;103201;-64
2023/03/25 05:18:41;;;;;;;0.90;0.53;;;;;;;8.31;84.55;98122.00;4993997;28;102737;-63
2023/03/25 05:21:10;;;;;;;1.60;0.50;;;;;;;8.34;85.80;98115.69;4989511;28;102747;-64
2023/03/25 05:23:40;;;;;;;0.90;0.50;;;;;;;8.50;85.14;98119.75;4997058;28;103240;-62
2023/03/25 05:26:20;;;;;;;0.53;0.47;;;;;;;8.45;85.45;98123.66;4981477;28;103676;-62
2023/03/25 05:28:50;;;;;;;2.73;0.70;;;;;;;8.45;84.05;98129.75;4997251;28;102646;-62
2023/03/25 05:31:18;;;;;;;0.87;0.50;;;;;;;8.41;84.42;98120.41;4996790;28;103635;-62
2023/03/25 05:33:50;;;;;;;3.63;0.77;;;;;;;8.32;84.16;98126.31;4997338;28;104039;-62
2023/03/25 05:36:18;;;;;;;1.53;0.70;;;;;;;8.40;83.52;98126.63;4997681;28;103187;-62
2023/03/25 05:38:47;;;;;;;2.87;0.80;;;;;;;8.45;83.79;98121.84;4993297;28;102598;-61
2023/03/25 05:41:16;;;;;;;2.93;0.70;;;;;;;8.47;82.79;98122.59;4991559;28;102651;-62
2023/03/25 05:43:46;;;;;;;3.17;0.80;;;;;;;8.57;82.37;98118.31;4982007;28;104019;-62
2023/03/25 05:46:14;;;;;;;1.57;0.70;;;;;;;8.62;81.81;98121.47;4989762;28;103212;-62
2023/03/25 05:48:42;;;;;;;1.53;0.60;;;;;;;8.71;81.71;98120.78;4987517;28;103058;-62
2023/03/25 05:51:14;;;;;;;2.70;0.90;;;;;;;8.79;81.08;98127.28;4987326;28;102691;-62
2023/03/25 05:53:43;;;;;;;2.63;0.73;;;;;;;8.81;81.10;98123.59;4993881;28;103199;-62
2023/03/25 05:56:11;;;;;;;2.33;1.07;;;;;;;8.78;80.78;98121.19;5005733;28;103213;-63
2023/03/25 05:58:39;;;;;;;1.37;0.80;;;;;;;8.68;80.76;98121.00;4988397;28;103106;-62
2023/03/25 06:01:07;;;;;;;3.17;1.00;;;;;;;8.73;80.32;98124.16;4968937;28;103001;-62
2023/03/25 06:03:52;;;;;;;2.33;1.00;;;;;;;8.71;79.29;98136.59;4976924;28;103340;-62
2023/03/25 06:06:24;;;;;;;2.87;1.13;;;;;;;8.99;79.26;98135.38;4995537;28;103207;-62
2023/03/25 06:08:52;;;;;;;2.87;0.83;;;;;;;8.99;79.04;98132.75;4996237;28;102711;-62
2023/03/25 06:11:20;;;;;;;4.33;0.80;;;;;;;9.02;79.65;98139.59;4991207;28;104044;-61
2023/03/25 06:13:49;;;;;;;1.80;0.70;;;;;;;8.91;78.99;98139.53;4987037;28;103403;-62
2023/03/25 06:16:20;;;;;;;1.87;0.80;;;;;;;9.05;79.02;98144.63;4994490;28;103203;-62
2023/03/25 06:18:55;;;;;;;4.40;1.17;;;;;;;8.96;78.91;98150.56;4976267;28;102866;-62
2023/03/25 06:21:25;;;;;;;1.60;0.80;;;;;;;9.11;78.62;98157.34;4993749;28;103754;-62
2023/03/25 06:23:54;;;;;;;4.07;1.10;;;;;;;9.15;78.67;98150.91;4988910;28;104313;-62
2023/03/25 06:26:23;;;;;;;4.17;1.23;;;;;;;9.13;77.83;98151.00;4970014;28;103167;-62
2023/03/25 06:28:51;;;;;;;3.53;0.93;;;;;;;9.32;78.12;98151.28;4980855;28;102695;-62
2023/03/25 06:31:21;;;;;;;5.57;1.10;;;;;;;9.44;77.53;98157.44;4982163;28;102832;-62
2023/03/25 06:33:50;;;;;;;4.13;0.80;;;;;;;9.52;77.24;98165.59;4994870;28;103706;-62
2023/03/25 06:36:19;;;;;;;3.90;1.30;;;;;;;9.48;77.90;98153.63;4989851;28;103013;-62
2023/03/25 06:38:50;;;;;;;1.63;0.70;;;;;;;9.28;77.39;98151.66;4971712;28;102704;-61
2023/03/25 06:41:24;;;;;;;1.53;0.73;;;;;;;9.54;77.34;98155.78;4965347;28;103947;-61
2023/03/25 06:44:09;;;;;;;1.93;0.90;;;;;;;9.65;76.62;98163.72;4973737;28;104944;-62
2023/03/25 06:46:46;;;;;;;2.63;0.70;;;;;;;9.59;76.22;98164.19;4980194;28;103143;-62
2023/03/25 06:49:26;;;;;;;3.03;1.00;;;;;;;9.94;75.92;98160.63;4956481;28;102734;-61
2023/03/25 06:51:56;;;;;;;1.93;0.90;;;;;;;10.04;76.16;98161.56;4966465;28;104193;-62
2023/03/25 06:54:25;;;;;;;3.13;0.90;;;;;;;9.88;75.96;98168.03;4957382;28;103317;-60
2023/03/25 06:56:53;;;;;;;2.53;0.93;;;;;;;9.87;75.25;98166.38;4970359;28;103231;-61
2023/03/25 06:59:21;;;;;;;3.30;1.07;;;;;;;10.10;75.19;98166.38;4977876;28;103009;-60
2023/03/25 07:01:49;;;;;;;3.60;0.80;;;;;;;10.25;75.90;98159.91;4963927;28;102843;-62
2023/03/25 07:04:17;;;;;;;4.13;0.97;;;;;;;10.25;74.37;98157.25;4972441;28;103154;-62
2023/03/25 07:06:46;;;;;;;1.47;0.80;;;;;;;10.38;74.90;98164.09;4987237;28;103301;-61
2023/03/25 07:09:14;;;;;;;2.70;0.87;;;;;;;10.30;73.75;98165.69;4961231;28;102815;-61
2023/03/25 07:11:44;;;;;;;5.27;1.00;;;;;;;10.39;74.08;98162.28;4990158;28;104241;-62
2023/03/25 07:14:11;;;;;;;4.33;1.00;;;;;;;10.54;73.23;98155.78;4975923;28;104180;-62
2023/03/25 07:16:39;;;;;;;2.27;0.90;;;;;;;11.26;72.67;98158.63;4967298;28;104290;-62
2023/03/25 07:19:07;;;;;;;2.73;0.70;;;;;;;11.59;71.17;98158.47;4992074;28;102840;-61
2023/03/25 07:21:35;;;;;;;2.30;0.80;;;;;;;11.50;70.87;98157.44;4979717;28;104110;-62
2023/03/25 07:24:03;;;;;;;3.47;0.70;;;;;;;10.78;70.87;98161.72;4992472;28;103297;-62
2023/03/25 07:26:32;;;;;;;2.07;0.90;;;;;;;10.65;71.69;98158.41;4973662;28;103215;-62
2023/03/25 07:29:09;;;;;;;2.47;0.90;;;;;;;10.97;70.88;98164.56;4964536;28;103952;-62
2023/03/25 07:31:38;;;;;;;3.17;1.10;;;;;;;10.98;70.86;98158.28;4965210;28;103185;-62
2023/03/25 07:34:07;;;;;;;1.73;0.60;;;;;;;11.01;71.41;98154.53;4986750;28;103240;-62
2023/03/25 07:36:35;;;;;;;2.40;0.80;;;;;;;11.03;70.51;98158.75;4981609;28;103221;-63
2023/03/25 07:39:03;;;;;;;2.87;0.80;;;;;;;11.32;69.14;98163.41;4964049;28;102745;-62
2023/03/25 07:41:32;;;;;;;2.03;0.50;;;;;;;11.32;68.73;98160.78;4982763;28;102735;-62
2023/03/25 07:44:13;;;;;;;2.03;0.63;;;;;;;12.09;68.97;98154.16;4985239;28;103256;-62
2023/03/25 07:46:44;;;;;;;2.63;1.20;;;;;;;12.23;66.74;98166.19;4982291;28;103215;-61
2023/03/25 07:49:12;;;;;;;1.90;0.70;;;;;;;12.26;68.94;98166.78;4987509;28;102662;-62
2023/03/25 07:51:40;;;;;;;1.80;0.63;;;;;;;12.06;67.57;98170.31;4963981;28;102913;-63
2023/03/25 07:54:09;;;;;;;2.07;0.87;;;;;;;12.76;66.24;98151.69;4989291;28;104014;-62
2023/03/25 07:56:37;;;;;;;4.47;0.67;;;;;;;12.54;65.61;98159.88;4967508;28;103386;-63
2023/03/25 07:59:05;;;;;;;2.90;0.90;;;;;;;12.85;66.00;98153.50;4978668;28;102880;-63
2023/03/25 08:01:35;;;;;;;4.13;0.83;;;;;;;12.90;67.73;98140.69;4991369;28;103174;-62
2023/03/25 08:04:03;;;;;;;2.57;0.83;;;;;;;12.56;67.41;98139.38;4988479;28;104083;-62
2023/03/25 08:06:31;;;;;;;1.43;0.70;;;;;;;13.07;64.69;98136.50;4991445;28;103200;-62
2023/03/25 08:08:59;;;;;;;1.93;0.83;;;;;;;13.44;64.37;98139.28;4983702;28;103764;-63
2023/03/25 08:11:29;;;;;;;2.77;0.70;;;;;;;13.12;64.16;98145.75;4993267;28;104146;-63
2023/03/25 08:14:02;;;;;;;2.50;1.30;;;;;;;13.70;62.86;98135.88;4971272;28;103050;-62
2023/03/25 08:16:31;;;;;;;2.93;0.97;;;;;;;13.64;61.99;98130.31;4974555;28;103074;-61
2023/03/25 08:19:01;;;;;;;2.77;0.90;;;;;;;13.19;63.30;98136.22;4955171;28;103629;-62
2023/03/25 08:21:30;;;;;;;2.10;1.07;;;;;;;13.60;62.72;98142.19;4990744;28;104123;-63
2023/03/25 08:24:01;;;;;;;1.20;0.57;;;;;;;13.73;62.72;98134.75;5000700;27;103066;-62
2023/03/25 08:26:30;;;;;;;1.60;0.57;;;;;;;13.77;62.22;98144.09;4996274;27;103244;-63
2023/03/25 08:28:58;;;;;;;2.30;0.70;;;;;;;13.44;62.36;98144.59;5000846;27;103213;-62
2023/03/25 08:31:33;;;;;;;1.83;0.70;;;;;;;13.60;61.42;98142.19;5007354;27;104506;-62
2023/03/25 08:34:44;;;;;;;0.53;0.50;;;;;;;13.85;61.81;98130.94;4986113;27;104042;-62
2023/03/25 08:37:17;;;;;;;1.80;0.70;;;;;;;14.24;60.32;98140.44;4970336;28;103198;-62
2023/03/25 08:39:57;;;;;;;2.63;1.00;;;;;;;13.39;61.09;98131.75;4954692;27;104534;-63
2023/03/25 08:42:33;;;;;;;1.77;0.70;;;;;;;13.12;62.35;98131.63;4974106;28;103116;-62
2023/03/25 08:45:23;;;;;;;2.13;0.50;;;;;;;12.59;63.51;98132.00;4973172;28;102911;-62
2023/03/25 08:47:52;;;;;;;1.17;0.50;;;;;;;12.28;65.50;98137.47;4986079;27;103184;-63
2023/03/25 08:50:54;;;;;;;1.67;0.80;;;;;;;11.49;70.13;98139.88;4975094;28;103097;-62
2023/03/25 08:53:28;;;;;;;0.93;0.40;;;;;;;11.53;69.83;98164.28;5000941;27;103920;-62
2023/03/25 08:56:19;;;;;;;1.20;0.30;;;;;;;11.76;70.53;98157.88;4984273;27;103046;-62
2023/03/25 08:59:16;;;;;;;0.37;0.30;;;;;;;11.18;70.12;98150.50;4985954;27;103045;-62
2023/03/25 09:01:51;;;;;;;0.50;0.50;;;;;;;11.06;72.53;98160.28;5001886;27;103013;-62
2023/03/25 09:04:23;;;;;;;1.43;0.50;;;;;;;11.26;71.58;98161.28;4995462;27;103142;-62
2023/03/25 09:06:55;;;;;;;0.87;0.40;;;;;;;11.09;72.20;98172.44;5002845;27;103393;-63
2023/03/25 09:09:43;;;;;;;0.90;0.60;;;;;;;10.74;75.28;98178.78;4987286;27;103573;-62
2023/03/25 09:12:12;;;;;;;0.60;0.50;;;;;;;10.96;75.04;98162.88;5003743;27;103211;-62
2023/03/25 09:14:40;;;;;;;0.40;0.40;;;;;;;11.55;76.85;98157.88;5001595;27;102694;-62
2023/03/25 09:17:09;;;;;;;1.03;0.60;;;;;;;11.75;75.39;98150.94;5005699;28;103004;-62
2023/03/25 09:19:37;;;;;;;0.73;0.57;;;;;;;11.38;75.95;98152.31;4997800;27;103218;-62
2023/03/25 09:22:07;;;;;;;0.60;0.40;;;;;;;11.88;75.55;98161.28;5001722;27;103198;-62
2023/03/25 09:24:36;;;;;;;0.30;0.23;;;;;;;11.49;75.51;98160.19;5003031;28;102769;-62
2023/03/25 09:27:04;;;;;;;0.50;0.40;;;;;;;12.06;73.58;98152.63;4996150;27;103099;-61
2023/03/25 09:29:32;;;;;;;0.87;0.40;;;;;;;12.56;72.99;98168.53;5006919;27;103321;-62
2023/03/25 09:32:01;;;;;;;0.47;0.37;;;;;;;12.49;73.44;98156.81;4985607;28;104858;-62
2023/03/25 09:34:30;;;;;;;0.60;0.53;;;;;;;11.98;73.47;98159.53;4999892;27;102856;-63
2023/03/25 09:36:58;;;;;;;0.60;0.40;;;;;;;12.33;73.02;98153.81;5003278;27;104175;-61
2023/03/25 09:39:27;;;;;;;0.30;0.30;;;;;;;12.45;72.52;98150.09;5002299;27;103251;-62
2023/03/25 09:42:12;;;;;;;1.67;0.67;;;;;;;12.34;72.62;98147.53;5002160;27;102736;-62
2023/03/25 09:44:52;;;;;;;0.93;0.40;;;;;;;12.19;72.64;98142.63;5003702;27;103524;-63
2023/03/25 09:47:23;;;;;;;1.23;0.47;;;;;;;12.24;72.66;98138.75;4989152;28;103225;-62
2023/03/25 09:49:57;;;;;;;1.43;0.47;;;;;;;12.90;72.83;98135.38;4998713;28;103186;-62
2023/03/25 09:52:32;;;;;;;0.50;0.47;;;;;;;12.51;72.28;98145.09;4993496;27;102955;-62
2023/03/25 09:55:07;;;;;;;0.90;0.50;;;;;;;12.22;74.30;98144.16;5007325;28;102833;-62
2023/03/25 09:57:47;;;;;;;1.13;0.60;;;;;;;12.65;73.38;98146.50;5010583;28;103291;-63
2023/03/25 10:00:19;;;;;;;0.67;0.47;;;;;;;12.28;75.16;98142.78;4992776;28;103443;-63
2023/03/25 10:02:55;;;;;;;1.13;0.50;;;;;;;12.49;74.80;98132.97;5009520;27;102654;-62
2023/03/25 10:05:39;;;;;;;0.70;0.40;;;;;;;13.05;72.74;98138.47;5014733;27;102660;-63
2023/03/25 10:08:18;;;;;;;0.70;0.37;;;;;;;13.65;72.12;98138.13;4995402;28;103773;-63
2023/03/25 10:10:52;;;;;;;0.93;0.40;;;;;;;13.76;69.50;98135.31;5014759;27;103206;-62
2023/03/25 10:13:26;;;;;;;0.53;0.40;;;;;;;14.12;67.83;98130.16;5000100;27;102776;-63
2023/03/25 10:15:59;;;;;;;2.10;0.40;;;;;;;14.19;67.78;98121.44;5011234;27;102675;-63
2023/03/25 10:18:48;;;;;;;0.60;0.60;;;;;;;13.82;67.81;98102.03;5015058;28;104547;-63
2023/03/25 10:21:25;;;;;;;0.50;0.43;;;;;;;14.82;65.48;98102.91;4992382;27;103205;-63
2023/03/25 10:24:03;;;;;;;0.60;0.60;;;;;;;14.91;64.92;98112.63;5013901;27;102708;-63
2023/03/25 10:26:40;;;;;;;0.70;0.70;;;;;;;14.24;62.82;98110.38;4997214;28;104230;-63
2023/03/25 10:29:13;;;;;;;1.33;0.80;;;;;;;14.25;63.27;98109.41;5015667;27;103279;-63
2023/03/25 10:31:49;;;;;;;0.53;0.53;;;;;;;14.76;62.85;98107.03;5011890;27;105115;-63
2023/03/25 10:34:19;;;;;;;0.60;0.40;;;;;;;14.92;59.77;98104.50;5017467;27;103635;-63
2023/03/25 10:36:53;;;;;;;1.37;0.50;;;;;;;14.38;61.21;98116.06;5011688;27;102703;-63
2023/03/25 10:39:23;;;;;;;0.90;0.60;;;;;;;14.02;62.68;98103.63;5015918;27;103447;-63
2023/03/25 10:41:57;;;;;;;0.73;0.53;;;;;;;14.41;62.86;98099.81;5018630;27;103166;-63
2023/03/25 10:44:26;;;;;;;2.80;0.60;;;;;;;14.32;61.51;98102.53;5011989;27;102702;-63
2023/03/25 10:46:58;;;;;;;1.50;0.50;;;;;;;13.93;62.31;98110.66;5014652;27;102627;-63
2023/03/25 10:49:30;;;;;;;2.13;0.43;;;;;;;13.48;62.67;98114.13;5012292;27;104123;-63
2023/03/25 10:51:59;;;;;;;0.60;0.43;;;;;;;13.21;62.77;98102.47;5012704;27;103683;-63
2023/03/25 10:54:31;;;;;;;1.80;0.50;;;;;;;13.44;62.45;98094.19;5010893;27;102828;-63
2023/03/25 10:57:05;;;;;;;1.40;0.60;;;;;;;13.97;61.05;98083.81;5001304;28;102846;-64
2023/03/25 10:59:42;;;;;;;0.60;0.40;;;;;;;14.01;60.45;98091.31;5012165;27;103420;-64
2023/03/25 11:02:17;;;;;;;2.20;0.60;;;;;;;14.09;59.39;98102.03;5016949;27;102977;-63
2023/03/25 11:04:49;;;;;;;1.40;0.40;;;;;;;14.28;58.50;98075.41;4993274;27;102800;-64
2023/03/25 11:07:20;;;;;;;0.70;0.40;;;;;;;14.58;57.65;98097.34;4994803;28;103192;-64
2023/03/25 11:09:50;;;;;;;0.50;0.40;;;;;;;14.42;57.04;98093.53;5014140;27;103069;-64
2023/03/25 11:12:21;;;;;;;0.73;0.50;;;;;;;14.87;58.20;98092.66;5011941;27;103613;-64
2023/03/25 11:15:06;;;;;;;1.87;0.47;;;;;;;14.92;57.14;98093.88;4996214;27;103192;-64
2023/03/25 11:17:34;;;;;;;0.80;0.60;;;;;;;14.92;57.30;98093.88;4991528;27;102865;-64
2023/03/25 11:20:09;;;;;;;1.70;0.40;;;;;;;14.85;56.41;98089.31;5010053;27;103342;-64
2023/03/25 11:22:38;;;;;;;1.23;0.50;;;;;;;15.18;53.94;98093.94;5017056;27;103227;-64
2023/03/25 11:25:13;;;;;;;2.23;0.50;;;;;;;15.46;53.32;98095.50;5015624;27;102597;-64
2023/03/25 11:27:47;;;;;;;2.67;0.50;;;;;;;14.92;54.94;98088.56;5015685;27;104080;-64
2023/03/25 11:30:20;;;;;;;1.07;0.43;;;;;;;14.80;54.90;98084.44;5013917;27;104172;-64
2023/03/25 11:32:57;;;;;;;1.83;0.63;;;;;;;15.09;53.39;98089.53;5015902;27;103250;-64
2023/03/25 11:35:29;;;;;;;1.73;0.97;;;;;;;14.72;54.10;98086.19;5012572;27;102659;-64
2023/03/25 11:38:00;;;;;;;0.73;0.53;;;;;;;15.17;53.53;98075.44;4996556;27;102908;-64
2023/03/25 11:40:30;;;;;;;1.27;0.60;;;;;;;15.01;53.15;98074.34;5015026;27;103086;-64
2023/03/25 11:43:03;;;;;;;1.13;0.60;;;;;;;15.46;52.80;98078.66;5015200;27;103336;-64
2023/03/25 11:45:34;;;;;;;1.20;0.50;;;;;;;15.34;52.50;98072.75;5013648;27;102685;-64
2023/03/25 11:48:11;;;;;;;2.67;0.60;;;;;;;16.03;51.83;98083.34;5014702;27;102805;-64
2023/03/25 11:50:46;;;;;;;1.33;0.60;;;;;;;15.84;51.09;98074.75;4990383;28;104629;-64
2023/03/25 11:53:16;;;;;;;1.90;0.90;;;;;;;16.42;51.19;98070.31;5016181;27;103237;-64